sensor_id;sensor_type;location;lat;lon;timestamp;pressure;altitude;pressure_sealevel;temperature;humidity
40998;BME280;26740;45.944;12.480;2022-10-18T00:01:07;102416.94;;;11.05;100.00
40998;BME280;26740;45.944;12.480;2022-10-18T00:03:34;102420.56;;;11.06;100.00
40998;BME280;26740;45.944;12.480;2022-10-18T00:06:00;102414.38;;;11.04;100.00
40998;BME280;26740;45.944;12.480;2022-10-18T00:08:26;102410.78;;;10.96;100.00
40998;BME280;26740;45.944;12.480;2022-10-18T00:10:53;102410.09;;;11.01;100.00
40998;BME280;26740;45.944;12.480;2022-10-18T00:13:19;102407.09;;;11.03;100.00
40998;BME280;26740;45.944;12.480;2022-10-18T00:15:53;102412.25;;;11.06;100.00
40998;BME280;26740;45.944;12.480;2022-10-18T00:18:19;102409.44;;;11.12;100.00
40998;BME280;26740;45.944;12.480;2022-10-18T00:21:04;102401.09;;;11.12;100.00
40998;BME280;26740;45.944;12.480;2022-10-18T00:23:31;102398.06;;;11.27;100.00
40998;BME280;26740;45.944;12.480;2022-10-18T00:26:07;102397.44;;;11.25;100.00
40998;BME280;26740;45.944;12.480;2022-10-18T00:28:33;102401.94;;;11.26;100.00
40998;BME280;26740;45.944;12.480;2022-10-18T00:31:17;102395.75;;;11.11;100.00
40998;BME280;26740;45.944;12.480;2022-10-18T00:33:48;102388.94;;;11.00;100.00
40998;BME280;26740;45.944;12.480;2022-10-18T00:36:14;102395.56;;;10.99;100.00
40998;BME280;26740;45.944;12.480;2022-10-18T00:38:39;102388.97;;;10.87;100.00
40998;BME280;26740;45.944;12.480;2022-10-18T00:41:07;102383.41;;;10.87;100.00
40998;BME280;26740;45.944;12.480;2022-10-18T00:43:53;102383.88;;;10.84;100.00
40998;BME280;26740;45.944;12.480;2022-10-18T00:46:20;102381.09;;;10.84;100.00
40998;BME280;26740;45.944;12.480;2022-10-18T00:48:46;102381.09;;;10.77;100.00
40998;BME280;26740;45.944;12.480;2022-10-18T00:51:13;102380.66;;;10.73;100.00
40998;BME280;26740;45.944;12.480;2022-10-18T00:53:39;102381.09;;;10.77;100.00
40998;BME280;26740;45.944;12.480;2022-10-18T00:56:05;102378.75;;;10.74;100.00
40998;BME280;26740;45.944;12.480;2022-10-18T00:58:31;102379.16;;;10.71;100.00
40998;BME280;26740;45.944;12.480;2022-10-18T01:00:57;102375.13;;;10.67;100.00
40998;BME280;26740;45.944;12.480;2022-10-18T01:03:22;102382.41;;;10.61;100.00
40998;BME280;26740;45.944;12.480;2022-10-18T01:05:48;102374.69;;;10.56;100.00
40998;BME280;26740;45.944;12.480;2022-10-18T01:08:49;102378.97;;;10.52;100.00
40998;BME280;26740;45.944;12.480;2022-10-18T01:11:31;102368.72;;;10.53;100.00
40998;BME280;26740;45.944;12.480;2022-10-18T01:14:33;102365.72;;;10.54;100.00
40998;BME280;26740;45.944;12.480;2022-10-18T01:23:32;102351.84;;;10.48;100.00
40998;BME280;26740;45.944;12.480;2022-10-18T01:31:24;102344.38;;;10.35;100.00
40998;BME280;26740;45.944;12.480;2022-10-18T01:34:01;102342.88;;;10.32;100.00
40998;BME280;26740;45.944;12.480;2022-10-18T01:36:32;102345.19;;;10.29;100.00
40998;BME280;26740;45.944;12.480;2022-10-18T01:39:02;102351.19;;;10.25;100.00
40998;BME280;26740;45.944;12.480;2022-10-18T01:41:31;102341.56;;;10.21;100.00
40998;BME280;26740;45.944;12.480;2022-10-18T01:44:00;102342.66;;;10.20;100.00
40998;BME280;26740;45.944;12.480;2022-10-18T01:46:28;102346.91;;;10.23;100.00
40998;BME280;26740;45.944;12.480;2022-10-18T01:48:55;102342.41;;;10.29;100.00
40998;BME280;26740;45.944;12.480;2022-10-18T01:51:29;102340.53;;;10.36;100.00
40998;BME280;26740;45.944;12.480;2022-10-18T01:53:55;102336.25;;;10.47;100.00
40998;BME280;26740;45.944;12.480;2022-10-18T01:58:54;102335.81;;;10.63;100.00
40998;BME280;26740;45.944;12.480;2022-10-18T02:10:12;102334.72;;;10.64;100.00
40998;BME280;26740;45.944;12.480;2022-10-18T02:12:43;102334.13;;;10.49;100.00
40998;BME280;26740;45.944;12.480;2022-10-18T02:15:13;102319.59;;;10.47;100.00
40998;BME280;26740;45.944;12.480;2022-10-18T02:17:42;102323.00;;;10.42;100.00
40998;BME280;26740;45.944;12.480;2022-10-18T02:20:10;102332.63;;;10.53;100.00
40998;BME280;26740;45.944;12.480;2022-10-18T02:22:38;102319.34;;;10.55;100.00
40998;BME280;26740;45.944;12.480;2022-10-18T02:25:12;102321.91;;;10.56;100.00
40998;BME280;26740;45.944;12.480;2022-10-18T02:27:40;102323.84;;;10.62;100.00
40998;BME280;26740;45.944;12.480;2022-10-18T02:30:07;102315.09;;;10.59;100.00
40998;BME280;26740;45.944;12.480;2022-10-18T02:32:37;102323.84;;;10.62;100.00
40998;BME280;26740;45.944;12.480;2022-10-18T02:35:15;102321.50;;;10.66;100.00
40998;BME280;26740;45.944;12.480;2022-10-18T02:37:44;102328.31;;;10.70;100.00
40998;BME280;26740;45.944;12.480;2022-10-18T02:40:11;102329.63;;;10.61;100.00
40998;BME280;26740;45.944;12.480;2022-10-18T02:43:04;102325.16;;;10.47;100.00
40998;BME280;26740;45.944;12.480;2022-10-18T02:45:30;102326.44;;;10.44;100.00
40998;BME280;26740;45.944;12.480;2022-10-18T02:47:57;102327.94;;;10.40;100.00
40998;BME280;26740;45.944;12.480;2022-10-18T02:50:22;102325.59;;;10.37;100.00
40998;BME280;26740;45.944;12.480;2022-10-18T02:52:48;102329.00;;;10.32;100.00
40998;BME280;26740;45.944;12.480;2022-10-18T02:55:14;102317.66;;;10.34;100.00
40998;BME280;26740;45.944;12.480;2022-10-18T02:57:39;102326.63;;;10.36;100.00
40998;BME280;26740;45.944;12.480;2022-10-18T03:00:06;102332.63;;;10.46;100.00
40998;BME280;26740;45.944;12.480;2022-10-18T03:02:32;102341.56;;;10.55;100.00
40998;BME280;26740;45.944;12.480;2022-10-18T03:04:57;102339.63;;;10.62;100.00
40998;BME280;26740;45.944;12.480;2022-10-18T03:07:23;102340.06;;;10.66;100.00
40998;BME280;26740;45.944;12.480;2022-10-18T03:09:49;102343.25;;;10.69;100.00
40998;BME280;26740;45.944;12.480;2022-10-18T03:12:14;102344.34;;;10.55;100.00
40998;BME280;26740;45.944;12.480;2022-10-18T03:14:40;102343.50;;;10.48;100.00
40998;BME280;26740;45.944;12.480;2022-10-18T03:17:05;102342.66;;;10.47;100.00
40998;BME280;26740;45.944;12.480;2022-10-18T03:19:31;102341.78;;;10.60;100.00
40998;BME280;26740;45.944;12.480;2022-10-18T03:21:57;102342.66;;;10.47;100.00
40998;BME280;26740;45.944;12.480;2022-10-18T03:24:22;102348.22;;;10.34;100.00
40998;BME280;26740;45.944;12.480;2022-10-18T03:26:48;102342.19;;;10.23;100.00
40998;BME280;26740;45.944;12.480;2022-10-18T03:29:13;102342.00;;;10.18;100.00
40998;BME280;26740;45.944;12.480;2022-10-18T03:31:39;102343.06;;;10.17;100.00
40998;BME280;26740;45.944;12.480;2022-10-18T03:34:04;102343.91;;;10.18;100.00
40998;BME280;26740;45.944;12.480;2022-10-18T03:36:30;102343.50;;;10.14;100.00
40998;BME280;26740;45.944;12.480;2022-10-18T03:38:57;102340.28;;;10.11;100.00
40998;BME280;26740;45.944;12.480;2022-10-18T03:41:23;102338.16;;;10.13;100.00
40998;BME280;26740;45.944;12.480;2022-10-18T03:43:49;102346.25;;;10.14;100.00
40998;BME280;26740;45.944;12.480;2022-10-18T03:46:14;102340.94;;;10.06;100.00
40998;BME280;26740;45.944;12.480;2022-10-18T03:48:40;102341.13;;;9.98;100.00
40998;BME280;26740;45.944;12.480;2022-10-18T03:51:05;102331.31;;;9.95;100.00
40998;BME280;26740;45.944;12.480;2022-10-18T03:53:31;102335.56;;;9.91;100.00
40998;BME280;26740;45.944;12.480;2022-10-18T03:55:56;102328.97;;;9.92;100.00
40998;BME280;26740;45.944;12.480;2022-10-18T03:58:23;102333.03;;;9.96;100.00
40998;BME280;26740;45.944;12.480;2022-10-18T04:00:52;102320.66;;;9.92;100.00
40998;BME280;26740;45.944;12.480;2022-10-18T04:03:19;102322.53;;;9.92;100.00
40998;BME280;26740;45.944;12.480;2022-10-18T04:05:46;102330.03;;;9.91;100.00
40998;BME280;26740;45.944;12.480;2022-10-18T04:08:12;102318.94;;;9.91;100.00
40998;BME280;26740;45.944;12.480;2022-10-18T04:10:39;102323.84;;;9.96;100.00
40998;BME280;26740;45.944;12.480;2022-10-18T04:13:06;102324.69;;;9.90;100.00
40998;BME280;26740;45.944;12.480;2022-10-18T04:15:32;102321.28;;;9.87;100.00
40998;BME280;26740;45.944;12.480;2022-10-18T04:17:58;102319.78;;;9.85;100.00
40998;BME280;26740;45.944;12.480;2022-10-18T04:20:24;102310.38;;;9.79;100.00
40998;BME280;26740;45.944;12.480;2022-10-18T04:22:51;102314.88;;;9.80;100.00
40998;BME280;26740;45.944;12.480;2022-10-18T04:25:19;102316.81;;;9.86;100.00
40998;BME280;26740;45.944;12.480;2022-10-18T04:27:45;102319.59;;;9.86;100.00
40998;BME280;26740;45.944;12.480;2022-10-18T04:30:11;102308.88;;;9.77;100.00
40998;BME280;26740;45.944;12.480;2022-10-18T04:32:37;102313.16;;;9.73;100.00
40998;BME280;26740;45.944;12.480;2022-10-18T04:35:03;102311.66;;;9.70;100.00
40998;BME280;26740;45.944;12.480;2022-10-18T04:37:29;102312.06;;;9.67;100.00
40998;BME280;26740;45.944;12.480;2022-10-18T04:39:55;102306.09;;;9.57;100.00
40998;BME280;26740;45.944;12.480;2022-10-18T04:42:21;102311.19;;;9.60;100.00
40998;BME280;26740;45.944;12.480;2022-10-18T04:44:47;102304.78;;;9.59;100.00
40998;BME280;26740;45.944;12.480;2022-10-18T04:47:12;102311.63;;;9.63;100.00
40998;BME280;26740;45.944;12.480;2022-10-18T04:49:38;102305.44;;;9.68;100.00
40998;BME280;26740;45.944;12.480;2022-10-18T04:52:04;102303.75;;;9.60;100.00
40998;BME280;26740;45.944;12.480;2022-10-18T04:54:29;102307.78;;;9.58;100.00
40998;BME280;26740;45.944;12.480;2022-10-18T04:56:55;102297.56;;;9.58;100.00
40998;BME280;26740;45.944;12.480;2022-10-18T04:59:21;102309.28;;;9.60;100.00
40998;BME280;26740;45.944;12.480;2022-10-18T05:01:46;102300.97;;;9.60;100.00
40998;BME280;26740;45.944;12.480;2022-10-18T05:04:12;102301.81;;;9.61;100.00
40998;BME280;26740;45.944;12.480;2022-10-18T05:06:38;102303.72;;;9.54;100.00
40998;BME280;26740;45.944;12.480;2022-10-18T05:09:04;102296.91;;;9.49;100.00
40998;BME280;26740;45.944;12.480;2022-10-18T05:11:30;102297.53;;;9.45;100.00
40998;BME280;26740;45.944;12.480;2022-10-18T05:13:55;102289.41;;;9.43;100.00
40998;BME280;26740;45.944;12.480;2022-10-18T05:16:21;102300.31;;;9.52;100.00
40998;BME280;26740;45.944;12.480;2022-10-18T05:18:47;102290.28;;;9.51;100.00
40998;BME280;26740;45.944;12.480;2022-10-18T05:21:13;102298.59;;;9.51;100.00
40998;BME280;26740;45.944;12.480;2022-10-18T05:23:38;102301.41;;;9.64;100.00
40998;BME280;26740;45.944;12.480;2022-10-18T05:26:05;102300.78;;;9.75;100.00
40998;BME280;26740;45.944;12.480;2022-10-18T05:28:32;102295.44;;;9.74;100.00
40998;BME280;26740;45.944;12.480;2022-10-18T05:31:06;102289.44;;;9.70;100.00
40998;BME280;26740;45.944;12.480;2022-10-18T05:33:32;102293.09;;;9.71;100.00
40998;BME280;26740;45.944;12.480;2022-10-18T05:35:58;102290.75;;;9.74;100.00
40998;BME280;26740;45.944;12.480;2022-10-18T05:38:25;102292.44;;;9.75;100.00
40998;BME280;26740;45.944;12.480;2022-10-18T05:40:51;102289.03;;;9.73;100.00
40998;BME280;26740;45.944;12.480;2022-10-18T05:43:17;102301.00;;;9.80;100.00
40998;BME280;26740;45.944;12.480;2022-10-18T05:45:49;102305.03;;;9.84;100.00
40998;BME280;26740;45.944;12.480;2022-10-18T05:48:15;102294.59;;;9.80;100.00
40998;BME280;26740;45.944;12.480;2022-10-18T05:50:42;102296.50;;;9.86;100.00
40998;BME280;26740;45.944;12.480;2022-10-18T05:53:07;102293.09;;;9.91;100.00
40998;BME280;26740;45.944;12.480;2022-10-18T05:55:33;102296.09;;;10.09;100.00
40998;BME280;26740;45.944;12.480;2022-10-18T05:57:58;102294.59;;;10.20;100.00
40998;BME280;26740;45.944;12.480;2022-10-18T06:00:24;102293.53;;;10.28;100.00
40998;BME280;26740;45.944;12.480;2022-10-18T06:02:49;102295.47;;;10.47;100.00
40998;BME280;26740;45.944;12.480;2022-10-18T06:05:15;102292.59;;;10.74;100.00
40998;BME280;26740;45.944;12.480;2022-10-18T06:07:41;102289.38;;;10.84;100.00
40998;BME280;26740;45.944;12.480;2022-10-18T06:10:07;102295.06;;;11.09;100.00
40998;BME280;26740;45.944;12.480;2022-10-18T06:12:33;102306.91;;;11.29;100.00
40998;BME280;26740;45.944;12.480;2022-10-18T06:14:58;102311.00;;;11.65;100.00
40998;BME280;26740;45.944;12.480;2022-10-18T06:17:24;102308.53;;;11.82;100.00
40998;BME280;26740;45.944;12.480;2022-10-18T06:19:49;102311.31;;;12.14;100.00
40998;BME280;26740;45.944;12.480;2022-10-18T06:22:16;102305.75;;;12.39;100.00
40998;BME280;26740;45.944;12.480;2022-10-18T06:24:42;102313.34;;;12.50;100.00
40998;BME280;26740;45.944;12.480;2022-10-18T06:27:07;102319.56;;;12.71;100.00
40998;BME280;26740;45.944;12.480;2022-10-18T06:29:39;102316.44;;;13.16;100.00
40998;BME280;26740;45.944;12.480;2022-10-18T06:32:06;102323.28;;;13.39;100.00
40998;BME280;26740;45.944;12.480;2022-10-18T06:34:32;102324.91;;;13.77;100.00
40998;BME280;26740;45.944;12.480;2022-10-18T06:36:59;102327.66;;;14.19;100.00
40998;BME280;26740;45.944;12.480;2022-10-18T06:39:25;102331.81;;;14.40;100.00
40998;BME280;26740;45.944;12.480;2022-10-18T06:41:50;102332.44;;;14.66;100.00
40998;BME280;26740;45.944;12.480;2022-10-18T06:44:16;102329.97;;;14.93;100.00
40998;BME280;26740;45.944;12.480;2022-10-18T06:46:46;102340.50;;;15.26;100.00
40998;BME280;26740;45.944;12.480;2022-10-18T06:49:13;102345.25;;;15.26;100.00
40998;BME280;26740;45.944;12.480;2022-10-18T06:51:40;102341.75;;;15.47;100.00
40998;BME280;26740;45.944;12.480;2022-10-18T06:54:06;102348.03;;;15.66;100.00
40998;BME280;26740;45.944;12.480;2022-10-18T06:56:33;102352.56;;;16.13;100.00
40998;BME280;26740;45.944;12.480;2022-10-18T06:58:59;102353.84;;;16.56;100.00
40998;BME280;26740;45.944;12.480;2022-10-18T07:01:24;102364.13;;;16.84;100.00
40998;BME280;26740;45.944;12.480;2022-10-18T07:03:52;102356.59;;;17.07;100.00
40998;BME280;26740;45.944;12.480;2022-10-18T07:06:18;102361.03;;;17.25;100.00
40998;BME280;26740;45.944;12.480;2022-10-18T07:08:46;102367.13;;;17.66;100.00
40998;BME280;26740;45.944;12.480;2022-10-18T07:11:23;102359.72;;;17.82;100.00
40998;BME280;26740;45.944;12.480;2022-10-18T07:13:50;102358.63;;;18.37;100.00
40998;BME280;26740;45.944;12.480;2022-10-18T07:16:18;102362.84;;;19.20;100.00
40998;BME280;26740;45.944;12.480;2022-10-18T07:18:46;102357.47;;;19.97;100.00
40998;BME280;26740;45.944;12.480;2022-10-18T07:21:15;102361.13;;;19.82;100.00
40998;BME280;26740;45.944;12.480;2022-10-18T07:23:42;102357.53;;;20.23;100.00
40998;BME280;26740;45.944;12.480;2022-10-18T07:28:50;102369.31;;;21.02;100.00
40998;BME280;26740;45.944;12.480;2022-10-18T07:31:16;102364.47;;;21.83;100.00
40998;BME280;26740;45.944;12.480;2022-10-18T07:33:42;102358.41;;;21.45;100.00
40998;BME280;26740;45.944;12.480;2022-10-18T07:36:10;102361.75;;;22.07;100.00
40998;BME280;26740;45.944;12.480;2022-10-18T07:38:36;102367.16;;;22.04;100.00
40998;BME280;26740;45.944;12.480;2022-10-18T07:41:03;102364.59;;;22.47;100.00
40998;BME280;26740;45.944;12.480;2022-10-18T07:43:31;102365.75;;;22.99;100.00
40998;BME280;26740;45.944;12.480;2022-10-18T07:45:59;102361.59;;;23.64;91.62
40998;BME280;26740;45.944;12.480;2022-10-18T07:48:25;102359.47;;;24.65;84.01
40998;BME280;26740;45.944;12.480;2022-10-18T07:50:52;102359.97;;;25.00;80.99
40998;BME280;26740;45.944;12.480;2022-10-18T07:53:17;102360.13;;;25.36;80.63
40998;BME280;26740;45.944;12.480;2022-10-18T07:55:43;102360.16;;;25.72;78.24
40998;BME280;26740;45.944;12.480;2022-10-18T07:58:09;102357.22;;;25.64;75.80
40998;BME280;26740;45.944;12.480;2022-10-18T08:00:35;102351.94;;;25.57;80.70
40998;BME280;26740;45.944;12.480;2022-10-18T08:03:01;102352.16;;;26.11;80.21
40998;BME280;26740;45.944;12.480;2022-10-18T08:05:27;102358.41;;;26.90;74.21
40998;BME280;26740;45.944;12.480;2022-10-18T08:07:53;102361.06;;;27.26;72.20
40998;BME280;26740;45.944;12.480;2022-10-18T08:10:20;102362.88;;;27.62;71.98
40998;BME280;26740;45.944;12.480;2022-10-18T08:12:46;102365.91;;;27.74;68.93
40998;BME280;26740;45.944;12.480;2022-10-18T08:15:11;102361.63;;;27.37;71.98
40998;BME280;26740;45.944;12.480;2022-10-18T08:17:37;102358.03;;;27.71;71.47
40998;BME280;26740;45.944;12.480;2022-10-18T08:20:04;102359.69;;;27.72;64.95
40998;BME280;26740;45.944;12.480;2022-10-18T08:22:30;102356.25;;;27.35;67.87
40998;BME280;26740;45.944;12.480;2022-10-18T08:24:56;102355.34;;;27.84;66.95
40998;BME280;26740;45.944;12.480;2022-10-18T08:27:22;102355.16;;;28.50;64.91
40998;BME280;26740;45.944;12.480;2022-10-18T08:29:50;102354.19;;;28.54;62.85
40998;BME280;26740;45.944;12.480;2022-10-18T08:32:15;102353.00;;;29.41;62.41
40998;BME280;26740;45.944;12.480;2022-10-18T08:34:41;102355.56;;;29.64;62.36
40998;BME280;26740;45.944;12.480;2022-10-18T08:37:06;102352.00;;;29.46;60.36
40998;BME280;26740;45.944;12.480;2022-10-18T08:39:32;102348.00;;;30.10;59.07
40998;BME280;26740;45.944;12.480;2022-10-18T08:42:22;102344.22;;;29.17;58.95
40998;BME280;26740;45.944;12.480;2022-10-18T08:44:52;102348.66;;;28.23;61.50
40998;BME280;26740;45.944;12.480;2022-10-18T08:47:20;102342.81;;;27.27;63.72
40998;BME280;26740;45.944;12.480;2022-10-18T08:49:56;102350.00;;;28.17;61.10
40998;BME280;26740;45.944;12.480;2022-10-18T08:55:17;102340.25;;;29.00;60.96
40998;BME280;26740;45.944;12.480;2022-10-18T08:57:49;102347.50;;;29.36;59.60
40998;BME280;26740;45.944;12.480;2022-10-18T09:00:22;102342.81;;;29.82;59.92
40998;BME280;26740;45.944;12.480;2022-10-18T09:06:25;102336.09;;;31.73;55.76
40998;BME280;26740;45.944;12.480;2022-10-18T09:11:35;102331.34;;;31.28;54.07
40998;BME280;26740;45.944;12.480;2022-10-18T09:19:58;102320.63;;;29.28;54.14
40998;BME280;26740;45.944;12.480;2022-10-18T09:22:47;102327.94;;;29.89;51.20
40998;BME280;26740;45.944;12.480;2022-10-18T09:27:55;102320.88;;;29.65;53.36
40998;BME280;26740;45.944;12.480;2022-10-18T09:35:56;102313.56;;;32.44;50.26
40998;BME280;26740;45.944;12.480;2022-10-18T09:38:26;102307.53;;;31.40;51.18
40998;BME280;26740;45.944;12.480;2022-10-18T09:40:59;102300.75;;;29.74;55.54
40998;BME280;26740;45.944;12.480;2022-10-18T09:44:09;102305.53;;;29.19;56.25
40998;BME280;26740;45.944;12.480;2022-10-18T09:46:46;102293.28;;;29.01;55.36
40998;BME280;26740;45.944;12.480;2022-10-18T09:49:28;102293.84;;;28.56;61.69
40998;BME280;26740;45.944;12.480;2022-10-18T09:51:58;102293.75;;;29.42;53.73
40998;BME280;26740;45.944;12.480;2022-10-18T09:54:45;102296.72;;;29.75;52.44
40998;BME280;26740;45.944;12.480;2022-10-18T09:57:16;102296.44;;;30.43;50.57
40998;BME280;26740;45.944;12.480;2022-10-18T09:59:47;102288.75;;;28.53;56.29
40998;BME280;26740;45.944;12.480;2022-10-18T10:02:19;102287.47;;;28.42;58.60
40998;BME280;26740;45.944;12.480;2022-10-18T10:04:47;102279.41;;;28.91;55.84
40998;BME280;26740;45.944;12.480;2022-10-18T10:07:19;102278.66;;;29.33;58.54
40998;BME280;26740;45.944;12.480;2022-10-18T10:09:47;102286.72;;;28.53;56.35
40998;BME280;26740;45.944;12.480;2022-10-18T10:12:34;102279.84;;;29.02;58.66
40998;BME280;26740;45.944;12.480;2022-10-18T10:15:29;102285.09;;;29.72;55.99
40998;BME280;26740;45.944;12.480;2022-10-18T10:17:57;102273.56;;;28.79;54.87
40998;BME280;26740;45.944;12.480;2022-10-18T10:20:44;102269.47;;;29.69;53.34
40998;BME280;26740;45.944;12.480;2022-10-18T10:23:29;102276.16;;;29.52;52.36
40998;BME280;26740;45.944;12.480;2022-10-18T10:26:02;102273.94;;;29.37;51.63
40998;BME280;26740;45.944;12.480;2022-10-18T10:28:33;102277.75;;;29.92;48.92
40998;BME280;26740;45.944;12.480;2022-10-18T10:31:32;102281.13;;;29.43;50.66
40998;BME280;26740;45.944;12.480;2022-10-18T10:36:30;102276.81;;;29.79;49.56
40998;BME280;26740;45.944;12.480;2022-10-18T10:39:10;102269.81;;;29.67;52.14
40998;BME280;26740;45.944;12.480;2022-10-18T10:41:38;102266.47;;;29.65;51.15
40998;BME280;26740;45.944;12.480;2022-10-18T10:44:14;102266.88;;;29.34;51.20
40998;BME280;26740;45.944;12.480;2022-10-18T10:46:40;102265.25;;;28.47;54.40
40998;BME280;26740;45.944;12.480;2022-10-18T10:49:19;102251.38;;;28.76;52.16
40998;BME280;26740;45.944;12.480;2022-10-18T10:51:52;102257.88;;;29.44;57.70
40998;BME280;26740;45.944;12.480;2022-10-18T10:54:21;102259.50;;;29.75;51.65
40998;BME280;26740;45.944;12.480;2022-10-18T10:59:46;102250.84;;;28.82;53.64
40998;BME280;26740;45.944;12.480;2022-10-18T11:04:39;102246.34;;;30.74;51.43
40998;BME280;26740;45.944;12.480;2022-10-18T11:09:50;102237.25;;;29.09;53.27
40998;BME280;26740;45.944;12.480;2022-10-18T11:20:40;102226.41;;;29.23;52.40
40998;BME280;26740;45.944;12.480;2022-10-18T11:23:11;102218.69;;;28.47;57.62
40998;BME280;26740;45.944;12.480;2022-10-18T11:26:02;102215.75;;;28.26;55.95
40998;BME280;26740;45.944;12.480;2022-10-18T11:31:06;102206.41;;;26.32;61.40
40998;BME280;26740;45.944;12.480;2022-10-18T11:33:54;102203.84;;;25.53;64.27
40998;BME280;26740;45.944;12.480;2022-10-18T11:42:32;102172.34;;;26.58;63.41
40998;BME280;26740;45.944;12.480;2022-10-18T11:48:31;102160.22;;;25.58;69.78
40998;BME280;26740;45.944;12.480;2022-10-18T11:56:57;102149.50;;;27.85;61.52
40998;BME280;26740;45.944;12.480;2022-10-18T11:59:36;102140.44;;;27.83;62.63
40998;BME280;26740;45.944;12.480;2022-10-18T12:02:42;102151.47;;;28.02;62.03
40998;BME280;26740;45.944;12.480;2022-10-18T12:05:13;102143.97;;;27.71;60.78
40998;BME280;26740;45.944;12.480;2022-10-18T12:07:46;102129.19;;;28.25;61.43
40998;BME280;26740;45.944;12.480;2022-10-18T12:10:16;102132.50;;;28.36;58.42
40998;BME280;26740;45.944;12.480;2022-10-18T12:12:52;102133.22;;;27.68;61.36
40998;BME280;26740;45.944;12.480;2022-10-18T12:15:24;102122.97;;;27.76;59.23
40998;BME280;26740;45.944;12.480;2022-10-18T12:17:53;102115.69;;;28.05;61.40
40998;BME280;26740;45.944;12.480;2022-10-18T12:20:26;102111.75;;;28.18;58.47
40998;BME280;26740;45.944;12.480;2022-10-18T12:23:11;102111.63;;;27.15;58.99
40998;BME280;26740;45.944;12.480;2022-10-18T12:25:42;102104.44;;;26.42;62.78
40998;BME280;26740;45.944;12.480;2022-10-18T12:33:36;102095.00;;;27.08;61.56
40998;BME280;26740;45.944;12.480;2022-10-18T12:36:17;102091.19;;;26.38;67.16
40998;BME280;26740;45.944;12.480;2022-10-18T12:39:05;102087.78;;;26.67;63.72
40998;BME280;26740;45.944;12.480;2022-10-18T12:41:32;102080.50;;;25.72;67.83
40998;BME280;26740;45.944;12.480;2022-10-18T12:44:15;102075.88;;;26.65;68.06
40998;BME280;26740;45.944;12.480;2022-10-18T12:46:54;102072.50;;;26.63;67.47
40998;BME280;26740;45.944;12.480;2022-10-18T12:51:54;102059.56;;;26.57;64.82
40998;BME280;26740;45.944;12.480;2022-10-18T12:54:28;102071.66;;;26.05;66.33
40998;BME280;26740;45.944;12.480;2022-10-18T12:56:54;102072.00;;;25.81;66.53
40998;BME280;26740;45.944;12.480;2022-10-18T13:09:37;102057.84;;;26.38;68.95
40998;BME280;26740;45.944;12.480;2022-10-18T13:17:50;102049.28;;;26.38;67.75
40998;BME280;26740;45.944;12.480;2022-10-18T13:20:32;102051.94;;;26.17;66.53
40998;BME280;26740;45.944;12.480;2022-10-18T13:29:03;102038.13;;;24.94;72.94
40998;BME280;26740;45.944;12.480;2022-10-18T13:31:46;102042.84;;;25.21;71.51
40998;BME280;26740;45.944;12.480;2022-10-18T13:39:22;102027.94;;;25.15;71.54
40998;BME280;26740;45.944;12.480;2022-10-18T13:44:34;102031.09;;;25.14;71.08
40998;BME280;26740;45.944;12.480;2022-10-18T13:49:33;102026.00;;;24.79;73.35
40998;BME280;26740;45.944;12.480;2022-10-18T14:03:43;102019.44;;;24.42;75.35
40998;BME280;26740;45.944;12.480;2022-10-18T14:08:41;102020.16;;;24.62;75.58
40998;BME280;26740;45.944;12.480;2022-10-18T14:13:47;102012.81;;;25.06;75.40
40998;BME280;26740;45.944;12.480;2022-10-18T14:16:33;102001.72;;;25.19;77.36
40998;BME280;26740;45.944;12.480;2022-10-18T14:19:17;102007.41;;;24.59;73.60
40998;BME280;26740;45.944;12.480;2022-10-18T14:22:06;102000.06;;;24.81;75.71
40998;BME280;26740;45.944;12.480;2022-10-18T14:24:34;101996.56;;;24.62;75.75
40998;BME280;26740;45.944;12.480;2022-10-18T14:27:11;101997.16;;;24.36;75.26
40998;BME280;26740;45.944;12.480;2022-10-18T14:29:39;102003.22;;;24.57;75.25
40998;BME280;26740;45.944;12.480;2022-10-18T14:35:03;101994.19;;;24.55;78.28
40998;BME280;26740;45.944;12.480;2022-10-18T14:37:34;101995.53;;;24.57;79.51
40998;BME280;26740;45.944;12.480;2022-10-18T14:40:01;101990.06;;;24.47;78.99
40998;BME280;26740;45.944;12.480;2022-10-18T14:42:28;101989.25;;;24.33;83.94
40998;BME280;26740;45.944;12.480;2022-10-18T14:44:54;101991.81;;;24.20;83.86
40998;BME280;26740;45.944;12.480;2022-10-18T14:47:27;101988.97;;;24.07;80.96
40998;BME280;26740;45.944;12.480;2022-10-18T14:49:55;101987.63;;;23.90;79.23
40998;BME280;26740;45.944;12.480;2022-10-18T14:52:29;101987.78;;;23.52;80.01
40998;BME280;26740;45.944;12.480;2022-10-18T14:54:57;101987.88;;;23.33;82.09
40998;BME280;26740;45.944;12.480;2022-10-18T14:57:30;101991.03;;;23.59;82.81
40998;BME280;26740;45.944;12.480;2022-10-18T14:59:59;101982.56;;;23.45;84.41
40998;BME280;26740;45.944;12.480;2022-10-18T15:02:28;101987.66;;;23.43;81.41
40998;BME280;26740;45.944;12.480;2022-10-18T15:05:17;101979.38;;;23.47;81.50
40998;BME280;26740;45.944;12.480;2022-10-18T15:07:44;101979.56;;;23.04;83.90
40998;BME280;26740;45.944;12.480;2022-10-18T15:10:16;101981.44;;;23.14;87.38
40998;BME280;26740;45.944;12.480;2022-10-18T15:12:44;101982.41;;;23.04;88.35
40998;BME280;26740;45.944;12.480;2022-10-18T15:15:24;101982.72;;;23.21;89.98